createdAt,value
2022-12-10T00:01:55.589Z,84.90
2022-12-10T00:04:23.613Z,85.22
2022-12-10T00:06:51.420Z,85.19
2022-12-10T00:09:21.547Z,85.08
2022-12-10T00:11:49.479Z,85.62
2022-12-10T00:14:18.198Z,85.73
2022-12-10T00:16:46.175Z,85.44
2022-12-10T00:19:14.108Z,85.30
2022-12-10T00:21:43.948Z,85.40
2022-12-10T00:24:12.323Z,85.92
2022-12-10T00:26:41.116Z,86.38
2022-12-10T00:29:12.472Z,87.22
2022-12-10T00:31:41.408Z,87.87
2022-12-10T00:34:11.561Z,87.90
2022-12-10T00:36:47.991Z,88.53
2022-12-10T00:39:18.517Z,88.84
2022-12-10T00:41:46.993Z,88.99
2022-12-10T00:44:16.361Z,89.17
2022-12-10T00:46:44.581Z,90.08
2022-12-10T00:49:13.204Z,90.37
2022-12-10T00:51:41.534Z,90.78
2022-12-10T00:54:09.687Z,91.44
2022-12-10T00:56:38.070Z,91.61
2022-12-10T00:59:06.022Z,91.76
2022-12-10T01:01:40.197Z,91.87
2022-12-10T01:04:12.596Z,91.82
2022-12-10T01:06:53.597Z,91.99
2022-12-10T01:09:26.821Z,92.93
2022-12-10T01:11:57.146Z,93.70
2022-12-10T01:14:29.534Z,94.13
2022-12-10T01:17:00.766Z,94.48
2022-12-10T01:19:28.664Z,94.96
2022-12-10T01:21:57.909Z,94.98
2022-12-10T01:24:28.234Z,95.58
2022-12-10T01:26:56.257Z,96.05
2022-12-10T01:29:24.371Z,96.34
2022-12-10T01:31:54.604Z,96.22
2022-12-10T01:34:23.301Z,97.16
2022-12-10T01:36:53.962Z,97.43
2022-12-10T01:39:23.784Z,98.08
2022-12-10T01:41:57.683Z,99.15
2022-12-10T01:44:25.441Z,99.75
2022-12-10T01:46:55.587Z,99.72
2022-12-10T01:49:37.357Z,99.58
2022-12-10T01:52:12.580Z,99.89
2022-12-10T01:54:46.794Z,100.00
2022-12-10T01:57:27.187Z,100.00
2022-12-10T02:00:02.741Z,100.00
2022-12-10T02:02:49.835Z,100.00
2022-12-10T02:05:23.647Z,100.00
2022-12-10T02:08:05.466Z,100.00
2022-12-10T02:10:48.741Z,100.00
2022-12-10T02:13:29.980Z,100.00
2022-12-10T02:16:13.568Z,100.00
2022-12-10T02:18:52.914Z,100.00
2022-12-10T02:21:27.277Z,100.00
2022-12-10T02:24:01.004Z,100.00
2022-12-10T02:26:47.757Z,100.00
2022-12-10T02:29:25.665Z,100.00
2022-12-10T02:32:00.986Z,100.00
2022-12-10T02:34:32.894Z,100.00
2022-12-10T02:37:07.821Z,100.00
2022-12-10T02:39:44.042Z,100.00
2022-12-10T02:42:13.772Z,100.00
2022-12-10T02:44:45.666Z,100.00
2022-12-10T02:47:16.752Z,100.00
2022-12-10T02:49:53.997Z,100.00
2022-12-10T02:52:23.901Z,100.00
2022-12-10T02:54:54.096Z,100.00
2022-12-10T02:57:58.904Z,100.00
2022-12-10T03:00:27.281Z,100.00
2022-12-10T03:03:24.077Z,100.00
2022-12-10T03:06:04.135Z,100.00
2022-12-10T03:08:50.098Z,100.00
2022-12-10T03:11:22.560Z,100.00
2022-12-10T03:14:14.970Z,100.00
2022-12-10T03:16:47.608Z,100.00
2022-12-10T03:19:19.844Z,100.00
2022-12-10T03:21:50.233Z,100.00
2022-12-10T03:24:19.403Z,100.00
2022-12-10T03:26:51.007Z,100.00
2022-12-10T03:29:25.701Z,100.00
2022-12-10T03:31:54.992Z,100.00
2022-12-10T03:34:23.821Z,100.00
2022-12-10T03:36:53.022Z,100.00
2022-12-10T03:39:21.399Z,100.00
2022-12-10T03:41:49.292Z,100.00
2022-12-10T03:44:32.092Z,100.00
2022-12-10T03:47:00.362Z,100.00
2022-12-10T03:49:28.397Z,100.00
2022-12-10T03:51:56.804Z,100.00
2022-12-10T03:54:24.664Z,100.00
2022-12-10T03:56:53.047Z,100.00
2022-12-10T03:59:21.094Z,100.00
2022-12-10T04:01:49.706Z,100.00
2022-12-10T04:04:17.925Z,100.00
2022-12-10T04:06:46.256Z,100.00
2022-12-10T04:09:15.704Z,100.00
2022-12-10T04:11:44.958Z,100.00
2022-12-10T04:14:32.634Z,100.00
2022-12-10T04:17:00.939Z,100.00
2022-12-10T04:19:29.033Z,100.00
2022-12-10T04:22:15.657Z,100.00
2022-12-10T04:25:02.244Z,100.00
2022-12-10T04:27:33.739Z,100.00
2022-12-10T04:30:02.175Z,100.00
2022-12-10T04:32:30.862Z,100.00
2022-12-10T04:34:58.728Z,100.00
2022-12-10T04:37:27.926Z,100.00
2022-12-10T04:39:56.276Z,100.00
2022-12-10T04:42:24.117Z,100.00
2022-12-10T04:44:52.238Z,100.00
2022-12-10T04:47:20.618Z,100.00
2022-12-10T04:49:48.688Z,100.00
2022-12-10T04:52:18.047Z,100.00
2022-12-10T04:54:46.267Z,100.00
2022-12-10T04:57:15.370Z,100.00
2022-12-10T04:59:43.428Z,100.00
2022-12-10T05:02:11.838Z,100.00
2022-12-10T05:04:39.919Z,100.00
2022-12-10T05:07:08.156Z,100.00
2022-12-10T05:09:36.091Z,100.00
2022-12-10T05:12:05.331Z,100.00
2022-12-10T05:14:33.514Z,100.00
2022-12-10T05:17:01.667Z,100.00
2022-12-10T05:19:29.605Z,100.00
2022-12-10T05:22:16.143Z,100.00
2022-12-10T05:24:44.016Z,100.00
2022-12-10T05:27:12.179Z,100.00
2022-12-10T05:29:39.972Z,100.00
2022-12-10T05:32:08.116Z,100.00
2022-12-10T05:34:36.131Z,100.00
2022-12-10T05:37:03.951Z,100.00
2022-12-10T05:39:31.749Z,100.00
2022-12-10T05:41:59.472Z,100.00
2022-12-10T05:44:27.437Z,100.00
2022-12-10T05:46:55.300Z,100.00
2022-12-10T05:49:23.250Z,100.00
2022-12-10T05:51:51.256Z,100.00
2022-12-10T05:54:19.116Z,100.00
2022-12-10T05:56:47.062Z,100.00
2022-12-10T05:59:17.167Z,100.00
2022-12-10T06:01:45.333Z,100.00
2022-12-10T06:04:14.616Z,100.00
2022-12-10T06:06:43.058Z,100.00
2022-12-10T06:09:14.091Z,100.00
2022-12-10T06:11:42.473Z,100.00
2022-12-10T06:14:11.655Z,100.00
2022-12-10T06:16:40.972Z,100.00
2022-12-10T06:19:08.816Z,100.00
2022-12-10T06:21:36.775Z,100.00
2022-12-10T06:24:04.919Z,100.00
2022-12-10T06:26:32.951Z,100.00
2022-12-10T06:29:01.529Z,100.00
2022-12-10T06:31:29.658Z,100.00
2022-12-10T06:33:57.779Z,100.00
2022-12-10T06:36:25.742Z,100.00
2022-12-10T06:38:53.734Z,100.00
2022-12-10T06:41:21.784Z,100.00
2022-12-10T06:43:49.957Z,100.00
2022-12-10T06:46:20.544Z,100.00
2022-12-10T06:48:48.659Z,100.00
2022-12-10T06:51:18.506Z,100.00
2022-12-10T06:53:47.260Z,100.00
2022-12-10T06:56:19.890Z,99.99
2022-12-10T06:58:49.032Z,100.00
2022-12-10T07:01:21.074Z,99.76
2022-12-10T07:03:50.845Z,99.35
2022-12-10T07:06:20.720Z,98.76
2022-12-10T07:08:51.459Z,98.43
2022-12-10T07:11:22.522Z,98.06
2022-12-10T07:13:51.300Z,97.90
2022-12-10T07:16:22.385Z,97.93
2022-12-10T07:18:52.773Z,97.83
2022-12-10T07:21:22.664Z,97.81
2022-12-10T07:23:52.109Z,97.87
2022-12-10T07:26:20.755Z,97.86
2022-12-10T07:28:53.044Z,97.71
2022-12-10T07:31:23.130Z,97.56
2022-12-10T07:33:52.857Z,96.96
2022-12-10T07:36:23.709Z,96.22
2022-12-10T07:38:52.419Z,96.22
2022-12-10T07:41:21.661Z,96.37
2022-12-10T07:43:50.263Z,96.23
2022-12-10T07:46:20.948Z,96.29
2022-12-10T07:48:50.119Z,96.27
2022-12-10T07:51:21.618Z,96.26
2022-12-10T07:53:53.595Z,96.17
2022-12-10T07:56:23.498Z,96.13
2022-12-10T07:58:53.405Z,96.17
2022-12-10T08:01:24.512Z,96.33
2022-12-10T08:03:54.804Z,96.27
2022-12-10T08:06:23.785Z,96.40
2022-12-10T08:08:51.893Z,96.57
2022-12-10T08:11:21.803Z,96.61
2022-12-10T08:13:55.132Z,96.65
2022-12-10T08:16:28.427Z,96.72
2022-12-10T08:18:57.335Z,96.86
2022-12-10T08:21:28.280Z,97.04
2022-12-10T08:23:56.056Z,97.27
2022-12-10T08:26:27.211Z,97.27
2022-12-10T08:28:56.385Z,97.45
2022-12-10T08:31:26.374Z,97.52
2022-12-10T08:33:54.589Z,97.34
2022-12-10T08:36:23.032Z,97.19
2022-12-10T08:38:51.339Z,97.49
2022-12-10T08:41:22.176Z,97.91
2022-12-10T08:43:53.257Z,99.09
2022-12-10T08:46:22.416Z,99.88
2022-12-10T08:48:50.377Z,100.00
2022-12-10T08:51:20.293Z,100.00
2022-12-10T08:53:48.575Z,100.00
2022-12-10T08:56:16.641Z,100.00
2022-12-10T08:58:44.606Z,100.00
2022-12-10T09:01:16.077Z,100.00
2022-12-10T09:03:45.130Z,100.00
2022-12-10T09:06:19.697Z,100.00
2022-12-10T09:08:48.472Z,100.00
2022-12-10T09:11:20.874Z,100.00
2022-12-10T09:13:49.320Z,100.00
2022-12-10T09:16:17.628Z,100.00
2022-12-10T09:18:45.728Z,100.00
2022-12-10T09:21:18.262Z,100.00
2022-12-10T09:23:46.106Z,100.00
2022-12-10T09:26:16.425Z,100.00
2022-12-10T09:28:45.624Z,100.00
2022-12-10T09:31:19.171Z,100.00
2022-12-10T09:33:50.958Z,100.00
2022-12-10T09:36:20.657Z,100.00
2022-12-10T09:38:49.732Z,100.00
2022-12-10T09:41:32.921Z,100.00
2022-12-10T09:44:12.554Z,100.00
2022-12-10T09:46:51.991Z,100.00
2022-12-10T09:49:28.863Z,100.00
2022-12-10T09:52:00.598Z,100.00
2022-12-10T09:54:35.968Z,100.00
2022-12-10T09:57:06.576Z,100.00
2022-12-10T09:59:43.586Z,100.00
2022-12-10T10:02:21.057Z,100.00
2022-12-10T10:04:55.424Z,100.00
2022-12-10T10:07:29.869Z,100.00
2022-12-10T10:10:02.322Z,100.00
2022-12-10T10:12:32.504Z,100.00
2022-12-10T10:15:11.529Z,100.00
2022-12-10T10:17:40.420Z,100.00
2022-12-10T10:20:09.007Z,100.00
2022-12-10T10:22:37.209Z,100.00
2022-12-10T10:25:07.100Z,100.00
2022-12-10T10:27:34.929Z,100.00
2022-12-10T10:30:05.647Z,100.00
2022-12-10T10:32:36.631Z,100.00
2022-12-10T10:35:06.047Z,100.00
2022-12-10T10:37:36.965Z,100.00
2022-12-10T10:40:05.313Z,100.00
2022-12-10T10:42:37.735Z,100.00
2022-12-10T10:45:27.295Z,100.00
2022-12-10T10:48:15.597Z,100.00
2022-12-10T10:50:50.020Z,100.00
2022-12-10T10:53:22.636Z,100.00
2022-12-10T10:55:51.513Z,100.00
2022-12-10T10:58:24.105Z,100.00
2022-12-10T11:01:04.139Z,100.00
2022-12-10T11:03:36.086Z,100.00
2022-12-10T11:06:08.444Z,100.00
2022-12-10T11:08:40.189Z,100.00
2022-12-10T11:11:18.559Z,100.00
2022-12-10T11:13:46.837Z,100.00
2022-12-10T11:16:26.100Z,100.00
2022-12-10T11:18:57.517Z,100.00
2022-12-10T11:21:26.078Z,100.00
2022-12-10T11:23:55.296Z,100.00
2022-12-10T11:26:51.938Z,100.00
2022-12-10T11:29:48.523Z,100.00
2022-12-10T11:32:22.488Z,100.00
2022-12-10T11:35:22.719Z,100.00
2022-12-10T11:37:57.481Z,100.00
2022-12-10T11:40:47.933Z,100.00
2022-12-10T11:43:46.497Z,100.00
2022-12-10T11:46:39.678Z,100.00
2022-12-10T11:49:28.537Z,100.00
2022-12-10T11:52:12.788Z,100.00
2022-12-10T11:55:15.942Z,100.00
2022-12-10T11:58:02.082Z,100.00
2022-12-10T12:00:43.146Z,100.00
2022-12-10T12:03:30.356Z,100.00
2022-12-10T12:06:08.146Z,100.00
2022-12-10T12:08:55.083Z,100.00
2022-12-10T12:11:49.062Z,100.00
2022-12-10T12:14:40.993Z,100.00
2022-12-10T12:17:18.074Z,100.00
2022-12-10T12:19:52.848Z,100.00
2022-12-10T12:22:30.869Z,100.00
2022-12-10T12:25:09.411Z,100.00
2022-12-10T12:27:44.523Z,100.00
2022-12-10T12:30:21.295Z,100.00
2022-12-10T12:33:36.395Z,100.00
2022-12-10T12:36:12.504Z,100.00
2022-12-10T12:38:56.879Z,100.00
2022-12-10T12:41:32.816Z,100.00
2022-12-10T12:44:10.343Z,100.00
2022-12-10T12:46:47.277Z,100.00
2022-12-10T12:49:23.663Z,100.00
2022-12-10T12:52:11.490Z,100.00
2022-12-10T12:54:41.587Z,100.00
2022-12-10T12:57:37.386Z,100.00
2022-12-10T13:00:12.934Z,100.00
2022-12-10T13:02:56.289Z,100.00
2022-12-10T13:05:33.748Z,100.00
2022-12-10T13:08:30.136Z,100.00
2022-12-10T13:10:58.015Z,100.00
2022-12-10T13:13:28.795Z,100.00
2022-12-10T13:15:56.697Z,100.00
2022-12-10T13:18:37.283Z,100.00
2022-12-10T13:21:17.442Z,100.00
2022-12-10T13:23:53.645Z,100.00
2022-12-10T13:26:31.073Z,100.00
2022-12-10T13:29:26.335Z,100.00
2022-12-10T13:32:02.089Z,100.00
2022-12-10T13:34:38.272Z,100.00
2022-12-10T13:37:32.125Z,100.00
2022-12-10T13:40:09.442Z,100.00
2022-12-10T13:42:58.607Z,100.00
2022-12-10T13:45:30.676Z,100.00
2022-12-10T13:48:17.114Z,100.00
2022-12-10T13:50:54.143Z,100.00
2022-12-10T13:53:42.177Z,100.00
2022-12-10T13:56:31.750Z,100.00
2022-12-10T13:59:05.544Z,100.00
2022-12-10T14:01:51.703Z,100.00
2022-12-10T14:04:40.801Z,100.00
2022-12-10T14:07:13.936Z,100.00
2022-12-10T14:09:50.976Z,100.00
2022-12-10T14:12:34.099Z,100.00
2022-12-10T14:15:27.253Z,100.00
2022-12-10T14:18:12.733Z,100.00
2022-12-10T14:20:47.458Z,100.00
2022-12-10T14:23:33.862Z,100.00
2022-12-10T14:26:06.743Z,100.00
2022-12-10T14:28:39.934Z,100.00
2022-12-10T14:31:14.960Z,100.00
2022-12-10T14:33:47.820Z,100.00
2022-12-10T14:36:27.789Z,100.00
2022-12-10T14:38:57.206Z,100.00
2022-12-10T14:41:27.171Z,100.00
2022-12-10T14:43:55.804Z,100.00
2022-12-10T14:46:29.602Z,100.00
2022-12-10T14:48:57.700Z,100.00
2022-12-10T14:51:32.734Z,100.00
2022-12-10T14:54:00.695Z,100.00
2022-12-10T14:56:35.342Z,100.00
2022-12-10T14:59:17.306Z,100.00
2022-12-10T15:01:50.254Z,100.00
2022-12-10T15:04:26.191Z,100.00
2022-12-10T15:07:01.893Z,100.00
2022-12-10T15:09:30.174Z,100.00
2022-12-10T15:12:00.594Z,100.00
2022-12-10T15:14:31.040Z,100.00
2022-12-10T15:17:02.965Z,100.00
2022-12-10T15:19:32.589Z,100.00
2022-12-10T15:22:15.910Z,100.00
2022-12-10T15:24:44.374Z,100.00
2022-12-10T15:27:24.201Z,100.00
2022-12-10T15:29:53.014Z,100.00
2022-12-10T15:32:27.787Z,100.00
2022-12-10T15:34:59.498Z,100.00
2022-12-10T15:37:34.884Z,100.00
2022-12-10T15:40:08.957Z,100.00
2022-12-10T15:42:43.582Z,100.00
2022-12-10T15:45:17.815Z,100.00
2022-12-10T15:47:46.095Z,100.00
2022-12-10T15:50:14.588Z,100.00
2022-12-10T15:52:43.273Z,100.00
2022-12-10T15:55:12.712Z,100.00
2022-12-10T15:57:45.917Z,100.00
2022-12-10T16:00:21.088Z,100.00
2022-12-10T16:02:59.708Z,100.00
2022-12-10T16:05:30.705Z,100.00
2022-12-10T16:08:12.272Z,100.00
2022-12-10T16:10:40.825Z,100.00
2022-12-10T16:13:16.428Z,100.00
2022-12-10T16:15:51.644Z,100.00
2022-12-10T16:18:20.192Z,100.00
2022-12-10T16:20:48.057Z,100.00
2022-12-10T16:23:16.118Z,100.00
2022-12-10T16:25:45.331Z,100.00
2022-12-10T16:28:18.409Z,100.00
2022-12-10T16:30:54.931Z,100.00
2022-12-10T16:33:25.369Z,100.00
2022-12-10T16:35:54.383Z,100.00
2022-12-10T16:38:22.685Z,100.00
2022-12-10T16:40:50.927Z,100.00
2022-12-10T16:43:26.131Z,100.00
2022-12-10T16:45:55.430Z,100.00
2022-12-10T16:48:23.468Z,100.00
2022-12-10T16:50:53.455Z,100.00
2022-12-10T16:53:27.485Z,100.00
2022-12-10T16:55:57.484Z,100.00
2022-12-10T16:58:25.941Z,100.00
2022-12-10T17:00:55.581Z,100.00
2022-12-10T17:03:29.715Z,100.00
2022-12-10T17:06:00.493Z,100.00
2022-12-10T17:08:29.660Z,100.00
2022-12-10T17:11:17.306Z,100.00
2022-12-10T17:13:46.009Z,100.00
2022-12-10T17:16:19.746Z,100.00
2022-12-10T17:18:47.748Z,100.00
2022-12-10T17:21:15.606Z,100.00
2022-12-10T17:23:43.760Z,100.00
2022-12-10T17:26:27.444Z,100.00
2022-12-10T17:29:02.239Z,100.00
2022-12-10T17:31:31.114Z,100.00
2022-12-10T17:33:59.547Z,100.00
2022-12-10T17:36:28.123Z,100.00
2022-12-10T17:38:56.296Z,100.00
2022-12-10T17:41:24.478Z,100.00
2022-12-10T17:43:52.257Z,100.00
2022-12-10T17:46:24.657Z,100.00
2022-12-10T17:48:54.120Z,100.00
2022-12-10T17:51:23.547Z,100.00
2022-12-10T17:53:51.397Z,100.00
2022-12-10T17:56:25.143Z,100.00
2022-12-10T17:58:53.202Z,100.00
2022-12-10T18:01:23.518Z,100.00
2022-12-10T18:03:51.798Z,100.00
2022-12-10T18:06:24.689Z,100.00
2022-12-10T18:08:54.621Z,100.00
2022-12-10T18:11:31.189Z,100.00
2022-12-10T18:13:59.221Z,100.00
2022-12-10T18:16:32.253Z,100.00
2022-12-10T18:19:05.509Z,100.00
2022-12-10T18:21:37.718Z,100.00
2022-12-10T18:24:06.053Z,100.00
2022-12-10T18:26:34.991Z,100.00
2022-12-10T18:29:04.469Z,100.00
2022-12-10T18:31:35.477Z,100.00
2022-12-10T18:34:05.010Z,100.00
2022-12-10T18:36:36.079Z,100.00
2022-12-10T18:39:07.958Z,100.00
2022-12-10T18:41:36.600Z,100.00
2022-12-10T18:44:04.893Z,100.00
2022-12-10T18:46:36.481Z,100.00
2022-12-10T18:49:05.077Z,100.00
2022-12-10T18:51:33.060Z,100.00
2022-12-10T18:54:01.206Z,100.00
2022-12-10T18:56:33.198Z,100.00
2022-12-10T18:59:01.526Z,100.00
2022-12-10T19:01:30.981Z,100.00
2022-12-10T19:03:59.280Z,100.00
2022-12-10T19:06:29.213Z,100.00
2022-12-10T19:09:17.688Z,100.00
2022-12-10T19:11:47.887Z,100.00
2022-12-10T19:14:16.649Z,100.00
2022-12-10T19:16:45.647Z,100.00
2022-12-10T19:19:15.701Z,100.00
2022-12-10T19:21:44.952Z,100.00
2022-12-10T19:24:14.051Z,100.00
2022-12-10T19:26:43.831Z,100.00
2022-12-10T19:29:20.842Z,100.00
2022-12-10T19:31:50.850Z,100.00
2022-12-10T19:34:20.513Z,100.00
2022-12-10T19:36:50.176Z,100.00
2022-12-10T19:39:25.230Z,100.00
2022-12-10T19:41:55.254Z,100.00
2022-12-10T19:44:23.290Z,100.00
2022-12-10T19:46:51.567Z,100.00
2022-12-10T19:49:20.142Z,100.00
2022-12-10T19:51:49.016Z,100.00
2022-12-10T19:54:17.423Z,100.00
2022-12-10T19:56:46.121Z,100.00
2022-12-10T19:59:19.692Z,100.00
2022-12-10T20:01:48.608Z,100.00
2022-12-10T20:04:17.984Z,100.00
2022-12-10T20:06:48.507Z,100.00
2022-12-10T20:09:19.777Z,100.00
2022-12-10T20:11:48.159Z,100.00
2022-12-10T20:14:17.375Z,100.00
2022-12-10T20:16:46.533Z,100.00
2022-12-10T20:19:16.235Z,100.00
2022-12-10T20:21:44.479Z,100.00
2022-12-10T20:24:14.948Z,100.00
2022-12-10T20:26:45.707Z,100.00
2022-12-10T20:29:20.090Z,100.00
2022-12-10T20:31:49.409Z,100.00
2022-12-10T20:34:18.169Z,100.00
2022-12-10T20:36:46.796Z,100.00
2022-12-10T20:39:21.905Z,100.00
2022-12-10T20:41:50.957Z,100.00
2022-12-10T20:44:19.905Z,100.00
2022-12-10T20:46:48.872Z,100.00
2022-12-10T20:49:19.810Z,100.00
2022-12-10T20:51:48.372Z,100.00
2022-12-10T20:54:16.741Z,100.00
2022-12-10T20:56:44.732Z,100.00
2022-12-10T20:59:14.837Z,100.00
2022-12-10T21:01:43.059Z,100.00
2022-12-10T21:04:12.081Z,100.00
2022-12-10T21:06:43.305Z,100.00
2022-12-10T21:09:12.399Z,100.00
2022-12-10T21:11:40.946Z,100.00
2022-12-10T21:14:18.452Z,100.00
2022-12-10T21:16:58.864Z,100.00
2022-12-10T21:19:28.021Z,100.00
2022-12-10T21:21:56.345Z,100.00
2022-12-10T21:24:24.945Z,100.00
2022-12-10T21:26:52.760Z,100.00
2022-12-10T21:29:21.328Z,100.00
2022-12-10T21:31:49.246Z,100.00
2022-12-10T21:34:17.085Z,100.00
2022-12-10T21:36:44.981Z,100.00
2022-12-10T21:39:12.845Z,100.00
2022-12-10T21:42:02.726Z,100.00
2022-12-10T21:44:32.841Z,100.00
2022-12-10T21:47:00.965Z,100.00
2022-12-10T21:49:29.049Z,100.00
2022-12-10T21:51:57.278Z,100.00
2022-12-10T21:54:25.169Z,100.00
2022-12-10T21:56:53.153Z,100.00
2022-12-10T21:59:21.323Z,100.00
2022-12-10T22:01:49.465Z,100.00
2022-12-10T22:04:17.938Z,100.00
2022-12-10T22:06:46.154Z,100.00
2022-12-10T22:09:14.223Z,100.00
2022-12-10T22:11:42.596Z,100.00
2022-12-10T22:14:10.781Z,100.00
2022-12-10T22:16:42.397Z,100.00
2022-12-10T22:19:12.850Z,100.00
2022-12-10T22:21:40.778Z,100.00
2022-12-10T22:24:08.744Z,100.00
2022-12-10T22:26:36.654Z,100.00
2022-12-10T22:29:04.626Z,100.00
2022-12-10T22:31:32.741Z,100.00
2022-12-10T22:34:00.766Z,100.00
2022-12-10T22:36:28.634Z,100.00
2022-12-10T22:38:56.608Z,100.00
2022-12-10T22:41:24.572Z,100.00
2022-12-10T22:43:52.900Z,100.00
2022-12-10T22:46:21.686Z,100.00
2022-12-10T22:48:50.143Z,100.00
2022-12-10T22:51:18.326Z,100.00
2022-12-10T22:53:46.862Z,100.00
2022-12-10T22:56:15.675Z,100.00
2022-12-10T22:58:44.143Z,100.00
2022-12-10T23:01:19.163Z,100.00
2022-12-10T23:03:49.438Z,100.00
2022-12-10T23:06:18.204Z,100.00
2022-12-10T23:08:46.661Z,100.00
2022-12-10T23:11:16.274Z,100.00
2022-12-10T23:13:45.000Z,100.00
2022-12-10T23:16:17.309Z,100.00
2022-12-10T23:18:50.201Z,100.00
2022-12-10T23:21:27.134Z,100.00
2022-12-10T23:23:55.076Z,100.00
2022-12-10T23:26:22.856Z,100.00
2022-12-10T23:28:50.954Z,100.00
2022-12-10T23:31:20.131Z,100.00
2022-12-10T23:33:48.153Z,100.00
2022-12-10T23:36:16.244Z,100.00
2022-12-10T23:38:44.364Z,100.00
2022-12-10T23:41:12.540Z,100.00
2022-12-10T23:43:40.830Z,100.00
2022-12-10T23:46:09.360Z,100.00
2022-12-10T23:48:37.682Z,100.00
2022-12-10T23:51:06.409Z,100.00
2022-12-10T23:53:34.509Z,100.00
2022-12-10T23:56:15.556Z,100.00
2022-12-10T23:58:44.445Z,100.00
